EKKA

Karup Airport

Karup, Denmark
METAR EKKA 220333Z AUTO 26008KT 9999NDV +RA FEW035/// SCT096/// 10/07 Q1005
Observed Flight Rules
Sep-22 @ 03:33 UTC (16 minutes ago)
Wind Clouds Conditions
260° at 8 knots
Temperatures Readings
Current 10°C / 50°F
Dewpoint 7°C / 45°F
Humidity 82%
Altimeter 29.68" Hg
Pressure 1005 hPa
Elevation 52
METAR EKKA 220333Z AUTO 26008KT 9999NDV +RA FEW035/// SCT096/// 10/07 Q1005
Observed Flight Rules
Sep-22 @ 03:33 UTC
(16 minutes ago)
Wind
260° at 8 knots
Clouds
Conditions
Temperature Dewpoint
10°C / 50°F 7°C / 45°F
Humidity Altimeter Pressure
82% 29.68" Hg 1005 hPa